KORD/ORD METAR and TAF weather

Enter ICAO airport designator
Station Type Date Time Source
KORD METAR 2019/08/19 11:51 UTC NOAA

KORD 191151Z 00000KT 10SM FEW038 SCT075 21/19 A2999 RMK AO2 SLP151 70086 T02060189 10211 20200 53015 $


Station Type Date Time Source
KORD Decoded METAR 2019/08/19 11:51 UTC NOAA

Station name not available
Aug 19, 2019 - 07:51 AM EDT / 2019.08.19 1151 UTC
Wind: Calm:0
Visibility: 10 mile(s):0
Sky conditions: partly cloudy
Temperature: 69.1 F (20.6 C)
Dew Point: 66.0 F (18.9 C)
Relative Humidity: 89%
Pressure (altimeter): 29.99 in. Hg (1015 hPa)
Pressure tendency: 0.04 inches (1.5 hPa) higher than three hours ago
ob: KORD 191151Z 00000KT 10SM FEW038 SCT075 21/19 A2999 RMK AO2 SLP151 70086 T02060189 10211 20200 53015
cycle: 12

Station Type Date Time Source
KORD TAF 2019/08/19 12:40 UTC NOAA

TAF KORD 191138Z 1912/2018 01005KT P6SM BKN035 BKN080
FM191700 08006KT P6SM SCT050 SCT090
FM192000 08006KT P6SM VCTS SCT050CB BKN090
FM192300 09005KT P6SM SCT050 SCT100
FM201500 17006KT P6SM SCT050 BKN100 BKN250

Example: see airport list